Latvian Short Course ChampionshipShort Course (25m)
Riga (LAT)23 - 24 Feb 2018
Women, 100m Freestyle, Timed Final,  Open
100m Freestyle - Women, 4 x 100m Freestyle, Timed Final,  Open
Women, 100m Freestyle, Timed Final,  Open23 Feb 2018 - 16:00TimePts.
1.MALUKA, Ieva2003LATBJSS Ridzene-DSN56.02750
2.KULIKOVA, Karolina2000LATLiepajas KSS-LOC59.15637
3.SALAJEVA, Anastasija2000LATSK Delfins59.45627
4.EMBREKTE, Zane1996LATBJSS Ridzene-ZIEP59.52625
5.MASKAVA, Kristiana2001LATBJSS Ridzene-DSN59.77617
6.KALNIETE, Meja Anete2003LATJelgavas SPS1:00.26603
7.GOBERGA, Marija2002LATBJSS Ridzene-ZIEP1:00.35600
8.MONSTVILAITE, Alina2000LATSK Delfins1:00.55594
9.ARTAMONOVA, Renate2002LATJelgavas SPS1:00.71589
10.MILLERE, Ksenija1999LATJelgavas SPS1:00.83586
11.FRANCUKA, Lija2001LATSK Delfins1:01.89556
12.GOBERGA, Marta1998LATBJSS Ridzene-ZIEP1:01.95554
13.GORSKOVA, Veronika2000LATJelgavas SPS1:01.97554
14.BUKA, Kristiana2000LATValmieras BSS1:02.03552
15.BOJARE, Elza2002LATJekabpils SC1:02.80532
16.OZOLA, Samanta2002LATBJSS Ridzene-DSN1:02.87530
17.PETTINENA, Zlata2004LATSK Delfins1:03.30520
18.AVANESOVA, Anna2002LATVentspils SS Spars1:03.55514
19.PERLOVA, Anna2003LATBJSS Ridzene-DSN1:03.94504
20.FILUSKINA, Lada2001LATJurmalas SS1:04.00503
21.KLASONE, Vikija2001LATValmieras BSS1:04.10500
22.PANKRATOVA, Karolina2003LATBJSS Ridzene-OSC1:04.12500
23.GRJUNBERGA, Gertrude2005LATPK Ogre1:04.35495
24.MEDVEDEVA, Laura2002LATBJSS Ridzene-ZIEP1:04.40494
25.ADAMOVICA, Patricija2001LATJelgavas SPS1:04.51491
26.DVORNIKOVA, Marija1999LATBJSS Ridzene-ZOL1:04.58489
27.ZVIGURE, Patricija2004LATBJSS Ridzene-OSC1:04.86483
28.BABINA, Marija2004LATBJSS Ridzene-DSN1:05.16476
29.HOROSKEVICA, Karina2000LATValmieras BSS1:05.55468
30.SMIRNOVA, Jekaterina2005LATSK Delfins1:05.88461
31.GROZA, Agnese2004LATAdazu BJSS1:05.92460
32.VILIMA, Veronika2003LATBJSS Ridzene-OSC1:05.98459
33.SIPCENOKA, Aira2005LATBJSS Ridzene-ZIEP1:06.01458
34.ATVARE, Linda2004LATBJSS Ridzene-ZIEP1:06.20454
35.VINOGRADOVA, Alise2001LATBJSS Ridzene-DSN1:06.36451
36.GONCARIKA, Jekaterina2001LATLiepajas KSS-EZER1:06.37451
37.LIFANOVA, Marija2003LATLiepajas KSS-EZER1:06.38451
38.BRANKOVA, Valerija2002LATJurmalas SS1:06.47449
39.KALNINA, Leticija2002LATBJSS Ridzene-DSN1:07.13436
40.ZVIGULE, Eliza2002LATAdazu BJSS1:07.80423
41.LAGZDINA, Evelina2003LATJelgavas SPS1:08.01419
42.MIHAILOVA, Evelina2004LATDaugavpils BJSS1:08.09417
43.JOSTA, Alise Marija2004LATJurmalas SS1:08.18416
44.MICKEVICA, Sofija2003LATBJSS Ridzene-DSN1:08.27414
45.GORCAKOVA, Anna2002LATSK Delfins1:08.47411
46.KLAVINA, Eva-Evelina2005LATSK Delfins1:08.83404
47.RIBAKOVA, Anastasija2005LATBJSS Ridzene-DSN1:09.02401
48.GLINKO, Karina2001LATBJSS Ridzene-ZOL1:09.34395
49.FILIPOVA, Jekaterina2002LATJurmalas SS1:09.48393
50.BALZARE, Olga2002LATJurmalas SS1:09.54392
51.FREIMANE, Nikola2005LATJelgavas SPS1:09.67390
52.HMELEVSKA, Veronika2004LATBJSS Ridzene-ZIEP1:09.68390
53.STALMAKOVA, Milana2004LATBJSS Ridzene-ZIEP1:09.80388
54.DZENISA, Emilija2005LATBJSS Ridzene-DSN1:09.88386
55.SVIKE, Paula Daniela2004LATValmieras BSS1:10.71373
56.ALIPOVA, Darja2005LATSK Delfins1:11.24364
57.BLICANE, Sindija1998LATKipsalas peldbaseins1:11.28364
58.ANCANE, Laura Anna2007LATBJSS Ridzene-DSN1:11.49361
59.PRIEDOLA, Tereze2003LATJurmalas SS1:11.52360
60.FEODOROVA, Eliza2005LATBJSS Ridzene-ZIEP1:11.58359
61.ANCANE, Marta Elize2007LATBJSS Ridzene-DSN1:11.72357
62.ZELMENE, Anna Marija2004LATJelgavas SPS1:12.01353
63.CACA, Jana2003LATBJSS Ridzene-ZIEP1:12.13351
64.HAITOVA, Daniela2005LATBJSS Ridzene-DSN1:12.16351
65.KRASNOLUCKA, Alina2004LATBJSS Ridzene-ZIEP1:12.43347
66.GISA, Olga2004LATJurmalas SS1:13.31334
67.LAVRENOVA, Eliza2005LATKipsalas peldbaseins1:13.67330
68.SLOSA, Laura2001LATJurmalas SS1:13.73329
100m Freestyle - Women, 4 x 100m Freestyle, Timed Final,  Open23 Feb 2018 - 19:05TimePts.
RelayNIKITINA, Gabriela1994LATBJSS Ridzene-OSC54.95795
RelayMALUKA, Ieva2003LATBJSS Ridzene-DSN56.75721
RelaySALAJEVA, Anastasija2000LATSK Delfins59.59623
RelayKALNIETE, Meja Anete2003LATJelgavas SPS1:00.16606
RelayFRANCUKA, Lija2001LATSK Delfins1:01.40570
RelayBUKA, Kristiana2000LATValmieras BSS1:02.48540
RelayLAIPNIECE, Sabine Marija2003LATBJSS Ridzene-ZIEP1:04.04502
RelayKALNISKE, Mareta2002LATJelgavas SPS1:04.28496
RelayPANKRATOVA, Veronika2000LATBJSS Ridzene-ZIEP1:04.39494
RelayFILUSKINA, Lada2001LATJurmalas SS1:06.12456
RelaySVIATKINA, Marharyta-Alena2006LATBJSS Ridzene-ZOL1:06.43450